Bookmark and Share
Track history (hours):
 

Zim Rio Grande

Last reported at 2014-Apr-12 02:31 UTC. Time now 2014-Apr-17 03:57 UTC.
Position N 36°06' W 007°58'.

Length 260 m; draft 12.7 m.

Type: Ship (hazmat cat A). MMSI: 249253000.

NotesDate/timePositionNaut miles runAvg speedWind from/ knotsBaromVisibWave heightAir tempDewpointWater temp
2014-Apr-12 02:31N 36°06' W 007°58'1616.2
2014-Apr-12 01:34N 36°04' W 007°39'1716.3
2014-Apr-12 00:30N 36°03' W 007°17'3216.6
2014-Apr-11 22:33N 35°60' W 006°37'5016.7
2014-Apr-11 19:34N 35°58' W 005°36'1515.4
2014-Apr-11 18:34N 36°02' W 005°17'22215.9
2014-Apr-11 04:32N 37°17' W 000°56'2017.6
2014-Apr-11 03:23N 37°31' W 000°38'1417.3
2014-Apr-11 02:33N 37°43' W 000°27'1917.4
2014-Apr-11 01:26N 37°59' W 000°13'11817.1
2014-Apr-10 18:33N 39°45' E 000°51'1717.2
2014-Apr-10 17:33N 40°02' E 000°57'1717.3
2014-Apr-10 16:33N 40°19' E 001°01'1616.5
2014-Apr-10 15:34N 40°35' E 001°06'1717.0
2014-Apr-10 14:33N 40°52' E 001°09'1413.7
2014-Apr-10 13:33N 41°05' E 001°13'0 0.2
2014-Apr-10 12:24N 41°06' E 001°13'0 0.0
2014-Apr-10 11:24N 41°06' E 001°13'0 0.0
2014-Apr-10 08:21N 41°06' E 001°13'0 0.0
2014-Apr-10 06:30N 41°06' E 001°13'0 0.0
2014-Apr-10 04:30N 41°05' E 001°13'0 0.0
2014-Apr-10 01:06N 41°06' E 001°13'2 3.9
2014-Apr-10 00:33N 41°03' E 001°13'1514.8
2014-Apr-09 23:33N 41°04' E 001°32'1717.2
2014-Apr-09 22:33N 41°07' E 001°55'1717.3
2014-Apr-09 21:33N 41°11' E 002°17'1717.4
2014-Apr-09 20:33N 41°16' E 002°39'1817.6
2014-Apr-09 19:33N 41°24' E 003°01'1817.5
2014-Apr-09 18:33N 41°32' E 003°21'1717.3
2014-Apr-09 17:33N 41°39' E 003°42'1817.8
2014-Apr-09 16:32N 41°46' E 004°05'1716.9
2014-Apr-09 15:33N 41°52' E 004°25'1616.3
2014-Apr-09 14:33N 41°59' E 004°46'3516.4
2014-Apr-09 12:24N 42°13' E 005°29'1517.2
2014-Apr-09 11:32N 42°16' E 005°49'2316.9
2014-Apr-09 10:10N 42°21' E 006°19'11915.5
2014-Apr-09 02:30N 43°48' E 008°11'1717.6
2014-Apr-09 01:34N 43°59' E 008°27'1817.6
2014-Apr-09 00:34N 44°12' E 008°44'1414.0
2014-Apr-08 23:33N 44°22' E 008°57'3 2.7
2014-Apr-08 22:33N 44°24' E 008°54'0 0.0
2014-Apr-08 21:33N 44°24' E 008°54'0 0.0
2014-Apr-08 20:33N 44°24' E 008°54'0 0.0
2014-Apr-08 19:33N 44°24' E 008°54'0 0.0
2014-Apr-08 18:30N 44°24' E 008°54'0 0.0
2014-Apr-08 17:33N 44°24' E 008°54'0 0.0
2014-Apr-08 16:33N 44°24' E 008°54'0 0.0
2014-Apr-08 15:33N 44°24' E 008°54'0 0.0
2014-Apr-08 14:33N 44°24' E 008°54'0 0.0
2014-Apr-08 13:33N 44°24' E 008°54'0 0.0
2014-Apr-08 12:33N 44°24' E 008°54'0 0.0
2014-Apr-08 11:33N 44°24' E 008°54'0 0.0
2014-Apr-08 10:33N 44°24' E 008°54'0 0.0
2014-Apr-08 09:33N 44°24' E 008°54'4 3.6
2014-Apr-08 08:33N 44°22' E 008°58'1312.6
2014-Apr-08 07:34N 44°10' E 009°04'1818.3
2014-Apr-08 06:34N 43°53' E 009°12'1818.3
2014-Apr-08 05:34N 43°36' E 009°21'1818.4
2014-Apr-08 04:33N 43°18' E 009°29'1818.3
2014-Apr-08 03:33N 43°01' E 009°38'1818.5
2014-Apr-08 02:33N 42°44' E 009°47'5517.7
2014-Apr-07 23:26N 41°58' E 010°29'3618.3
2014-Apr-07 21:30N 41°34' E 011°04'7218.3
2014-Apr-07 17:33N 40°46' E 012°15'5918.4
2014-Apr-07 14:20N 40°06' E 013°12'1418.4
2014-Apr-07 13:33N 39°56' E 013°26'1818.4
2014-Apr-07 12:33N 39°44' E 013°44'1918.5
2014-Apr-07 11:33N 39°31' E 014°02'7718.3
2014-Apr-07 07:19N 38°40' E 015°16'1417.8
2014-Apr-07 06:31N 38°29' E 015°28'39016.8
2014-Apr-06 07:17N 36°23' E 023°13'1317.8
2014-Apr-06 06:34N 36°35' E 023°17'1918.7
2014-Apr-06 05:34N 36°53' E 023°23'1918.8
2014-Apr-06 04:33N 37°10' E 023°32'2218.3
2014-Apr-06 03:20N 37°32' E 023°41'1418.1
2014-Apr-06 02:33N 37°46' E 023°38'1211.8
2014-Apr-06 01:33N 37°57' E 023°35'0 0.0
2014-Apr-06 00:30N 37°57' E 023°35'0 0.0
2014-Apr-05 23:30N 37°57' E 023°35'0 0.0
2014-Apr-05 21:06N 37°57' E 023°35'0 0.1
2014-Apr-05 20:30N 37°57' E 023°35'0 0.0
2014-Apr-05 19:30N 37°57' E 023°35'0 0.0
2014-Apr-05 18:18N 37°57' E 023°35'0 0.0
2014-Apr-05 17:24N 37°57' E 023°35'0 0.0
2014-Apr-05 16:24N 37°57' E 023°35'0 0.0
2014-Apr-05 15:24N 37°57' E 023°35'0 0.0
2014-Apr-05 14:30N 37°57' E 023°35'0 0.0
2014-Apr-05 13:30N 37°57' E 023°35'0 0.0
2014-Apr-05 12:30N 37°57' E 023°35'0 0.0
2014-Apr-05 11:30N 37°57' E 023°35'0 0.0
2014-Apr-05 10:33N 37°57' E 023°35'0 0.0
2014-Apr-05 09:30N 37°57' E 023°35'0 0.0
2014-Apr-05 08:24N 37°57' E 023°35'0 0.1
2014-Apr-05 07:30N 37°57' E 023°35'0 0.0
2014-Apr-05 06:24N 37°57' E 023°35'0 0.0
2014-Apr-05 05:30N 37°57' E 023°35'0 0.0
2014-Apr-05 04:30N 37°57' E 023°35'0 0.0
2014-Apr-05 03:30N 37°57' E 023°35'0 0.0
2014-Apr-05 02:24N 37°57' E 023°35'0 0.0
2014-Apr-05 01:30N 37°57' E 023°35'0 0.0
2014-Apr-05 00:33N 37°57' E 023°35'0 0.0
2014-Apr-04 23:30N 37°57' E 023°35'0 0.0
2014-Apr-04 22:33N 37°57' E 023°35'0 0.4
2014-Apr-04 21:33N 37°57' E 023°35'3 2.7
2014-Apr-04 20:33N 37°55' E 023°37'1 0.5
2014-Apr-04 19:33N 37°55' E 023°38'3 3.2
2014-Apr-04 18:33N 37°52' E 023°40'1010.3
2014-Apr-04 17:33N 37°42' E 023°44'3614.4
2014-Apr-04 15:05N 37°08' E 023°57'1215.7
2014-Apr-04 14:17N 36°56' E 024°02'1215.9
2014-Apr-04 13:33N 36°45' E 024°06'1515.4
2014-Apr-04 12:33N 36°33' E 024°19'1414.4
2014-Apr-04 11:33N 36°25' E 024°34'1615.6
2014-Apr-04 10:33N 36°17' E 024°50'1616.3
2014-Apr-04 09:33N 36°08' E 025°07'1616.3
2014-Apr-04 08:33N 35°59' E 025°23'1616.4
2014-Apr-04 07:33N 35°49' E 025°40'1616.3
2014-Apr-04 06:33N 35°40' E 025°57'1716.5
2014-Apr-04 05:33N 35°31' E 026°14'1616.4
2014-Apr-04 04:33N 35°22' E 026°30'1616.3
2014-Apr-04 03:33N 35°13' E 026°47'1716.5
2014-Apr-04 02:33N 35°08' E 027°06'1616.4
2014-Apr-04 01:32N 35°02' E 027°25'1716.4
2014-Apr-04 00:31N 34°56' E 027°45'1616.3
2014-Apr-03 23:33N 34°51' E 028°03'23216.2
2014-Apr-03 09:13N 33°34' E 032°28'2916.7
2014-Apr-03 07:29N 33°25' E 033°01'10710.6
2014-Apr-02 21:27N 32°49' E 035°01'  

Dump ship's entire track history

sailing weather and tide predictions

Zim Rio Grande — 9HNV9 — position and weather